createdAt,value
2022-09-21T00:00:46.347Z,0.00
2022-09-21T00:01:46.963Z,0.00
2022-09-21T00:02:47.036Z,0.00
2022-09-21T00:03:46.265Z,0.00
2022-09-21T00:04:46.267Z,0.00
2022-09-21T00:05:46.923Z,0.00
2022-09-21T00:06:46.218Z,0.00
2022-09-21T00:07:46.215Z,0.00
2022-09-21T00:08:46.287Z,0.00
2022-09-21T00:09:46.207Z,0.00
2022-09-21T00:10:47.138Z,0.00
2022-09-21T00:11:47.136Z,0.00
2022-09-21T00:12:46.193Z,0.00
2022-09-21T00:13:46.326Z,0.00
2022-09-21T00:14:46.240Z,0.00
2022-09-21T00:15:46.807Z,0.00
2022-09-21T00:16:46.375Z,0.00
2022-09-21T00:17:46.510Z,0.00
2022-09-21T00:18:46.364Z,0.00
2022-09-21T00:19:46.179Z,0.00
2022-09-21T00:20:46.981Z,0.00
2022-09-21T00:21:46.179Z,0.00
2022-09-21T00:22:46.082Z,0.00
2022-09-21T00:23:47.091Z,0.00
2022-09-21T00:24:46.071Z,0.00
2022-09-21T00:25:46.040Z,0.00
2022-09-21T00:26:46.671Z,0.00
2022-09-21T00:27:47.484Z,0.00
2022-09-21T00:28:46.671Z,0.00
2022-09-21T00:29:46.670Z,0.00
2022-09-21T00:30:46.032Z,0.00
2022-09-21T00:31:46.051Z,0.00
2022-09-21T00:32:46.702Z,0.00
2022-09-21T00:33:46.854Z,0.00
2022-09-21T00:34:45.929Z,0.00
2022-09-21T00:35:46.052Z,0.00
2022-09-21T00:36:45.941Z,0.00
2022-09-21T00:37:46.817Z,0.00
2022-09-21T00:38:45.971Z,0.00
2022-09-21T00:39:46.003Z,0.00
2022-09-21T00:40:45.892Z,0.00
2022-09-21T00:41:46.532Z,0.00
2022-09-21T00:42:46.529Z,0.00
2022-09-21T00:43:45.863Z,0.00
2022-09-21T00:44:45.933Z,0.00
2022-09-21T00:45:45.892Z,0.00
2022-09-21T00:46:45.864Z,0.00
2022-09-21T00:47:45.994Z,0.00
2022-09-21T00:48:47.204Z,0.00
2022-09-21T00:49:45.827Z,0.00
2022-09-21T00:50:45.933Z,0.00
2022-09-21T00:51:46.442Z,0.00
2022-09-21T00:52:45.816Z,0.00
2022-09-21T00:53:45.798Z,0.00
2022-09-21T00:54:45.816Z,0.00
2022-09-21T00:55:46.383Z,0.00
2022-09-21T00:56:46.387Z,0.00
2022-09-21T00:57:46.372Z,0.00
2022-09-21T00:58:45.686Z,0.00
2022-09-21T00:59:46.346Z,0.00
2022-09-21T01:00:45.675Z,0.00
2022-09-21T01:01:46.368Z,0.00
2022-09-21T01:02:45.656Z,0.00
2022-09-21T01:03:45.690Z,0.00
2022-09-21T01:04:45.685Z,0.00
2022-09-21T01:05:45.696Z,0.00
2022-09-21T01:06:45.568Z,0.00
2022-09-21T01:07:46.265Z,0.00
2022-09-21T01:08:45.707Z,0.00
2022-09-21T01:09:46.469Z,0.00
2022-09-21T01:10:46.228Z,0.00
2022-09-21T01:11:46.207Z,0.00
2022-09-21T01:12:46.198Z,0.00
2022-09-21T01:13:45.522Z,0.00
2022-09-21T01:14:45.547Z,0.00
2022-09-21T01:15:46.176Z,0.00
2022-09-21T01:16:46.167Z,0.00
2022-09-21T01:17:46.171Z,0.00
2022-09-21T01:18:46.890Z,0.00
2022-09-21T01:19:45.532Z,0.00
2022-09-21T01:20:45.559Z,0.00
2022-09-21T01:21:46.110Z,0.00
2022-09-21T01:22:45.509Z,0.00
2022-09-21T01:23:45.406Z,0.00
2022-09-21T01:24:46.077Z,0.00
2022-09-21T01:25:46.064Z,0.00
2022-09-21T01:26:45.380Z,0.00
2022-09-21T01:27:46.326Z,0.00
2022-09-21T01:28:46.032Z,0.00
2022-09-21T01:29:46.022Z,0.00
2022-09-21T01:30:48.932Z,0.00
2022-09-21T01:31:45.410Z,0.00
2022-09-21T01:32:45.351Z,0.00
2022-09-21T01:33:45.292Z,0.00
2022-09-21T01:34:46.733Z,0.00
2022-09-21T01:35:45.281Z,0.00
2022-09-21T01:36:45.272Z,0.00
2022-09-21T01:37:45.946Z,0.00
2022-09-21T01:38:45.913Z,0.00
2022-09-21T01:39:45.242Z,0.00
2022-09-21T01:40:45.920Z,0.00
2022-09-21T01:41:45.896Z,0.00
2022-09-21T01:42:45.245Z,0.00
2022-09-21T01:43:45.294Z,0.00
2022-09-21T01:44:45.261Z,0.00
2022-09-21T01:45:45.238Z,0.00
2022-09-21T01:46:45.174Z,0.00
2022-09-21T01:47:45.835Z,0.00
2022-09-21T01:48:45.829Z,0.00
2022-09-21T01:49:47.387Z,0.00
2022-09-21T01:50:45.797Z,0.00
2022-09-21T01:51:45.156Z,0.00
2022-09-21T01:52:45.775Z,0.00
2022-09-21T01:53:45.085Z,0.00
2022-09-21T01:54:45.875Z,0.00
2022-09-21T01:55:45.086Z,0.00
2022-09-21T01:56:46.122Z,0.00
2022-09-21T01:57:45.998Z,0.00
2022-09-21T01:58:45.057Z,0.00
2022-09-21T01:59:45.049Z,0.00
2022-09-21T02:00:45.065Z,0.00
2022-09-21T02:01:45.024Z,0.00
2022-09-21T02:02:46.073Z,0.00
2022-09-21T02:03:45.638Z,0.00
2022-09-21T02:04:46.428Z,0.00
2022-09-21T02:05:44.968Z,0.00
2022-09-21T02:06:45.634Z,0.00
2022-09-21T02:07:45.623Z,0.00
2022-09-21T02:08:44.962Z,0.00
2022-09-21T02:09:45.602Z,0.00
2022-09-21T02:10:45.110Z,0.00
2022-09-21T02:11:45.006Z,0.00
2022-09-21T02:12:45.569Z,0.00
2022-09-21T02:13:44.870Z,0.00
2022-09-21T02:14:44.970Z,0.00
2022-09-21T02:15:44.949Z,0.00
2022-09-21T02:16:44.851Z,0.00
2022-09-21T02:17:45.831Z,0.00
2022-09-21T02:18:44.853Z,0.00
2022-09-21T02:19:44.844Z,0.00
2022-09-21T02:20:45.559Z,0.00
2022-09-21T02:21:44.823Z,0.00
2022-09-21T02:22:46.262Z,0.00
2022-09-21T02:23:44.793Z,0.00
2022-09-21T02:24:45.732Z,0.00
2022-09-21T02:25:45.431Z,0.00
2022-09-21T02:26:44.801Z,0.00
2022-09-21T02:27:44.773Z,0.00
2022-09-21T02:28:44.722Z,0.00
2022-09-21T02:29:45.396Z,0.00
2022-09-21T02:30:45.375Z,0.00
2022-09-21T02:31:44.783Z,0.00
2022-09-21T02:32:44.781Z,0.00
2022-09-21T02:33:44.733Z,0.00
2022-09-21T02:34:44.683Z,0.00
2022-09-21T02:35:44.669Z,0.00
2022-09-21T02:36:44.677Z,0.00
2022-09-21T02:37:44.666Z,0.00
2022-09-21T02:38:45.284Z,0.00
2022-09-21T02:39:45.625Z,0.00
2022-09-21T02:40:46.589Z,0.00
2022-09-21T02:41:45.577Z,0.00
2022-09-21T02:42:45.535Z,0.00
2022-09-21T02:43:45.586Z,0.00
2022-09-21T02:44:45.207Z,0.00
2022-09-21T02:45:44.638Z,0.00
2022-09-21T02:46:44.597Z,0.00
2022-09-21T02:47:45.199Z,0.00
2022-09-21T02:48:44.564Z,0.00
2022-09-21T02:49:44.615Z,0.00
2022-09-21T02:50:44.526Z,0.00
2022-09-21T02:51:45.907Z,0.00
2022-09-21T02:52:45.907Z,0.00
2022-09-21T02:53:45.867Z,0.00
2022-09-21T02:54:44.436Z,0.00
2022-09-21T02:55:44.936Z,0.00
2022-09-21T02:56:45.086Z,0.00
2022-09-21T02:57:45.349Z,0.00
2022-09-21T02:58:44.387Z,0.00
2022-09-21T02:59:45.326Z,0.00
2022-09-21T03:00:45.070Z,0.00
2022-09-21T03:01:44.381Z,0.00
2022-09-21T03:02:45.008Z,0.00
2022-09-21T03:03:45.017Z,0.00
2022-09-21T03:04:44.338Z,0.00
2022-09-21T03:05:44.999Z,0.00
2022-09-21T03:06:45.740Z,0.00
2022-09-21T03:07:45.234Z,0.00
2022-09-21T03:08:44.339Z,0.00
2022-09-21T03:09:44.308Z,0.00
2022-09-21T03:10:44.291Z,0.00
2022-09-21T03:11:44.249Z,0.00
2022-09-21T03:12:44.910Z,0.00
2022-09-21T03:13:44.220Z,0.00
2022-09-21T03:14:44.888Z,0.00
2022-09-21T03:15:44.941Z,0.00
2022-09-21T03:16:44.885Z,0.00
2022-09-21T03:17:44.244Z,0.00
2022-09-21T03:18:44.874Z,0.00
2022-09-21T03:19:44.841Z,0.00
2022-09-21T03:20:45.190Z,0.00
2022-09-21T03:21:45.026Z,0.00
2022-09-21T03:22:44.813Z,0.00
2022-09-21T03:23:44.812Z,0.00
2022-09-21T03:24:44.792Z,0.00
2022-09-21T03:25:44.773Z,0.00
2022-09-21T03:26:44.752Z,0.00
2022-09-21T03:27:45.036Z,0.00
2022-09-21T03:28:44.063Z,0.00
2022-09-21T03:29:44.054Z,0.00
2022-09-21T03:30:44.170Z,0.00
2022-09-21T03:31:44.718Z,0.00
2022-09-21T03:32:44.046Z,0.00
2022-09-21T03:33:44.024Z,0.00
2022-09-21T03:34:45.470Z,0.00
2022-09-21T03:35:43.993Z,0.00
2022-09-21T03:36:44.004Z,0.00
2022-09-21T03:37:43.993Z,0.00
2022-09-21T03:38:44.054Z,0.00
2022-09-21T03:39:44.624Z,0.00
2022-09-21T03:40:44.613Z,0.00
2022-09-21T03:41:45.398Z,0.00
2022-09-21T03:42:43.910Z,0.00
2022-09-21T03:43:44.587Z,0.00
2022-09-21T03:44:43.915Z,0.00
2022-09-21T03:45:43.886Z,0.00
2022-09-21T03:46:44.086Z,0.00
2022-09-21T03:47:43.862Z,0.00
2022-09-21T03:48:43.862Z,0.00
2022-09-21T03:49:44.516Z,0.00
2022-09-21T03:50:44.475Z,0.00
2022-09-21T03:51:44.529Z,0.00
2022-09-21T03:52:43.879Z,0.00
2022-09-21T03:53:43.788Z,0.00
2022-09-21T03:54:43.796Z,0.00
2022-09-21T03:55:44.527Z,0.00
2022-09-21T03:56:44.439Z,0.00
2022-09-21T03:57:43.777Z,0.00
2022-09-21T03:58:44.419Z,0.00
2022-09-21T03:59:45.168Z,0.00
2022-09-21T04:00:43.719Z,0.00
2022-09-21T04:01:43.760Z,0.00
2022-09-21T04:02:43.743Z,0.00
2022-09-21T04:03:44.358Z,0.00
2022-09-21T04:04:43.681Z,0.00
2022-09-21T04:05:43.659Z,0.00
2022-09-21T04:06:43.659Z,0.00
2022-09-21T04:07:43.682Z,0.00
2022-09-21T04:08:44.310Z,0.00
2022-09-21T04:09:43.629Z,0.00
2022-09-21T04:10:43.610Z,0.00
2022-09-21T04:11:43.616Z,0.00
2022-09-21T04:12:43.582Z,0.00
2022-09-21T04:13:44.270Z,0.00
2022-09-21T04:14:44.246Z,0.00
2022-09-21T04:15:43.631Z,0.00
2022-09-21T04:16:43.599Z,0.00
2022-09-21T04:17:44.209Z,0.00
2022-09-21T04:18:43.520Z,0.00
2022-09-21T04:19:44.210Z,0.00
2022-09-21T04:20:43.488Z,0.00
2022-09-21T04:21:44.177Z,0.00
2022-09-21T04:22:44.436Z,0.00
2022-09-21T04:23:44.143Z,0.00
2022-09-21T04:24:44.142Z,0.00
2022-09-21T04:25:43.490Z,0.00
2022-09-21T04:26:43.443Z,0.00
2022-09-21T04:27:43.440Z,0.00
2022-09-21T04:28:44.084Z,0.00
2022-09-21T04:29:44.092Z,0.00
2022-09-21T04:30:43.462Z,0.00
2022-09-21T04:31:44.051Z,0.00
2022-09-21T04:32:44.060Z,0.00
2022-09-21T04:33:43.361Z,0.00
2022-09-21T04:34:44.786Z,0.00
2022-09-21T04:35:43.434Z,0.00
2022-09-21T04:36:44.015Z,0.00
2022-09-21T04:37:43.395Z,0.00
2022-09-21T04:38:43.993Z,0.00
2022-09-21T04:39:43.298Z,0.00
2022-09-21T04:40:48.054Z,0.00
2022-09-21T04:41:43.946Z,0.00
2022-09-21T04:42:43.295Z,0.00
2022-09-21T04:43:43.956Z,0.00
2022-09-21T04:44:43.925Z,0.00
2022-09-21T04:45:43.918Z,0.00
2022-09-21T04:46:43.516Z,0.00
2022-09-21T04:47:43.895Z,0.00
2022-09-21T04:48:43.203Z,0.00
2022-09-21T04:49:43.846Z,0.00
2022-09-21T04:50:43.864Z,0.00
2022-09-21T04:51:43.208Z,0.00
2022-09-21T04:52:43.849Z,0.00
2022-09-21T04:53:43.834Z,0.00
2022-09-21T04:54:43.819Z,0.00
2022-09-21T04:55:43.887Z,0.00
2022-09-21T04:56:43.127Z,0.00
2022-09-21T04:57:43.108Z,0.00
2022-09-21T04:58:43.999Z,0.00
2022-09-21T04:59:43.769Z,0.00
2022-09-21T05:00:43.049Z,0.00
2022-09-21T05:01:43.782Z,0.00
2022-09-21T05:02:43.050Z,0.00
2022-09-21T05:03:43.778Z,0.00
2022-09-21T05:04:47.505Z,0.00
2022-09-21T05:05:44.010Z,0.00
2022-09-21T05:06:43.693Z,0.00
2022-09-21T05:07:43.750Z,0.00
2022-09-21T05:08:42.979Z,0.00
2022-09-21T05:09:42.979Z,0.00
2022-09-21T05:10:43.030Z,5.62
2022-09-21T05:11:43.031Z,5.62
2022-09-21T05:12:43.794Z,5.62
2022-09-21T05:13:43.074Z,5.62
2022-09-21T05:14:43.902Z,5.62
2022-09-21T05:15:43.617Z,5.62
2022-09-21T05:16:43.861Z,5.62
2022-09-21T05:17:42.976Z,5.62
2022-09-21T05:18:43.562Z,11.25
2022-09-21T05:19:43.019Z,11.25
2022-09-21T05:20:43.544Z,11.25
2022-09-21T05:21:42.921Z,11.25
2022-09-21T05:22:43.704Z,11.25
2022-09-21T05:23:43.518Z,16.88
2022-09-21T05:24:43.493Z,16.88
2022-09-21T05:25:42.903Z,16.88
2022-09-21T05:26:43.704Z,16.88
2022-09-21T05:27:42.787Z,22.50
2022-09-21T05:28:43.684Z,22.50
2022-09-21T05:29:42.993Z,22.50
2022-09-21T05:30:56.227Z,28.12
2022-09-21T05:31:44.754Z,28.12
2022-09-21T05:32:42.744Z,28.12
2022-09-21T05:33:43.394Z,33.75
2022-09-21T05:34:43.387Z,33.75
2022-09-21T05:35:43.375Z,33.75
2022-09-21T05:36:43.368Z,33.75
2022-09-21T05:37:43.336Z,39.38
2022-09-21T05:38:43.367Z,39.38
2022-09-21T05:39:42.675Z,39.38
2022-09-21T05:40:43.382Z,45.00
2022-09-21T05:41:43.320Z,45.00
2022-09-21T05:42:43.306Z,45.00
2022-09-21T05:43:43.275Z,50.62
2022-09-21T05:44:43.531Z,50.62
2022-09-21T05:45:47.302Z,56.25
2022-09-21T05:46:43.505Z,56.25
2022-09-21T05:47:43.246Z,56.25
2022-09-21T05:48:43.238Z,56.25
2022-09-21T05:49:42.557Z,61.88
2022-09-21T05:50:42.530Z,67.50
2022-09-21T05:51:42.547Z,67.50
2022-09-21T05:52:43.188Z,67.50
2022-09-21T05:53:43.187Z,67.50
2022-09-21T05:54:42.496Z,67.50
2022-09-21T05:55:43.428Z,67.50
2022-09-21T05:56:43.164Z,73.12
2022-09-21T05:57:43.139Z,73.12
2022-09-21T05:58:42.449Z,78.75
2022-09-21T05:59:42.469Z,78.75
2022-09-21T06:00:43.118Z,78.75
2022-09-21T06:01:43.242Z,78.75
2022-09-21T06:02:43.156Z,78.75
2022-09-21T06:03:42.452Z,84.38
2022-09-21T06:04:42.407Z,84.38
2022-09-21T06:05:43.050Z,90.00
2022-09-21T06:06:43.040Z,90.00
2022-09-21T06:07:42.446Z,101.25
2022-09-21T06:08:43.024Z,106.88
2022-09-21T06:09:43.386Z,112.50
2022-09-21T06:10:43.230Z,112.50
2022-09-21T06:11:43.000Z,118.12
2022-09-21T06:12:42.980Z,118.12
2022-09-21T06:13:43.061Z,118.12
2022-09-21T06:14:42.951Z,123.75
2022-09-21T06:15:42.941Z,123.75
2022-09-21T06:16:43.007Z,129.38
2022-09-21T06:17:43.164Z,135.00
2022-09-21T06:18:43.171Z,140.62
2022-09-21T06:19:42.886Z,140.62
2022-09-21T06:20:42.215Z,146.25
2022-09-21T06:21:42.881Z,146.25
2022-09-21T06:22:42.862Z,146.25
2022-09-21T06:23:42.864Z,151.88
2022-09-21T06:24:42.192Z,157.50
2022-09-21T06:25:42.183Z,163.12
2022-09-21T06:26:42.233Z,163.12
2022-09-21T06:27:42.813Z,163.12
2022-09-21T06:28:42.202Z,163.12
2022-09-21T06:29:42.115Z,168.75
2022-09-21T06:30:42.165Z,168.75
2022-09-21T06:31:42.763Z,185.62
2022-09-21T06:32:42.135Z,191.25
2022-09-21T06:33:46.180Z,191.25
2022-09-21T06:34:43.966Z,174.38
2022-09-21T06:35:42.045Z,174.38
2022-09-21T06:36:42.036Z,174.38
2022-09-21T06:37:42.694Z,180.00
2022-09-21T06:38:42.695Z,185.62
2022-09-21T06:39:42.009Z,185.62
2022-09-21T06:40:42.717Z,185.62
2022-09-21T06:41:42.669Z,196.88
2022-09-21T06:42:42.046Z,208.12
2022-09-21T06:43:42.176Z,219.38
2022-09-21T06:44:42.635Z,219.38
2022-09-21T06:45:42.699Z,236.25
2022-09-21T06:46:41.935Z,258.75
2022-09-21T06:47:42.073Z,264.38
2022-09-21T06:48:43.397Z,264.38
2022-09-21T06:49:42.848Z,258.75
2022-09-21T06:50:43.347Z,264.38
2022-09-21T06:51:42.558Z,270.00
2022-09-21T06:52:41.980Z,270.00
2022-09-21T06:53:41.877Z,253.12
2022-09-21T06:54:41.889Z,247.50
2022-09-21T06:55:42.590Z,247.50
2022-09-21T06:56:43.271Z,247.50
2022-09-21T06:57:41.808Z,247.50
2022-09-21T06:58:43.240Z,247.50
2022-09-21T06:59:41.788Z,247.50
2022-09-21T07:00:42.503Z,241.88
2022-09-21T07:01:42.054Z,241.88
2022-09-21T07:02:41.760Z,241.88
2022-09-21T07:03:41.750Z,247.50
2022-09-21T07:04:43.201Z,247.50
2022-09-21T07:05:42.418Z,241.88
2022-09-21T07:06:41.811Z,253.12
2022-09-21T07:07:41.808Z,258.75
2022-09-21T07:10:44.929Z,275.62
2022-09-21T07:11:42.603Z,275.62
2022-09-21T07:12:43.087Z,275.62
2022-09-21T07:13:42.312Z,270.00
2022-09-21T07:14:42.312Z,264.38
2022-09-21T07:15:41.623Z,270.00
2022-09-21T07:16:42.312Z,275.62
2022-09-21T07:17:41.600Z,270.00
2022-09-21T07:18:43.737Z,264.38
2022-09-21T07:19:42.256Z,270.00
2022-09-21T07:20:42.253Z,270.00
2022-09-21T07:21:42.235Z,275.62
2022-09-21T07:22:42.984Z,281.25
2022-09-21T07:23:42.217Z,281.25
2022-09-21T07:24:41.530Z,281.25
2022-09-21T07:25:42.605Z,275.62
2022-09-21T07:26:41.514Z,275.62
2022-09-21T07:27:41.610Z,281.25
2022-09-21T07:28:42.186Z,286.88
2022-09-21T07:29:41.566Z,286.88
2022-09-21T07:30:42.146Z,286.88
2022-09-21T07:31:42.457Z,298.12
2022-09-21T07:32:41.436Z,320.62
2022-09-21T07:33:41.449Z,320.62
2022-09-21T07:34:42.938Z,331.88
2022-09-21T07:35:41.426Z,331.88
2022-09-21T07:36:41.427Z,343.12
2022-09-21T07:37:42.047Z,365.62
2022-09-21T07:38:41.367Z,371.25
2022-09-21T07:39:41.672Z,360.00
2022-09-21T07:40:41.472Z,337.50
2022-09-21T07:41:41.368Z,326.25
2022-09-21T07:42:41.390Z,326.25
2022-09-21T07:43:41.401Z,343.12
2022-09-21T07:44:41.990Z,354.38
2022-09-21T07:45:41.424Z,376.88
2022-09-21T07:46:45.783Z,371.25
2022-09-21T07:47:43.789Z,343.12
2022-09-21T07:48:41.280Z,320.62
2022-09-21T07:49:42.025Z,343.12
2022-09-21T07:50:41.924Z,371.25
2022-09-21T07:51:41.910Z,376.88
2022-09-21T07:52:42.695Z,371.25
2022-09-21T07:53:42.182Z,382.50
2022-09-21T07:54:41.240Z,382.50
2022-09-21T07:55:41.952Z,376.88
2022-09-21T07:56:41.873Z,410.62
2022-09-21T07:57:41.182Z,461.25
2022-09-21T07:58:41.887Z,556.88
2022-09-21T07:59:41.142Z,703.12
2022-09-21T08:00:41.248Z,838.12
2022-09-21T08:01:41.287Z,618.75
2022-09-21T08:02:46.694Z,573.75
2022-09-21T08:03:42.099Z,579.38
2022-09-21T08:04:41.343Z,568.12
2022-09-21T08:05:41.103Z,551.25
2022-09-21T08:06:41.115Z,495.00
2022-09-21T08:07:42.424Z,466.88
2022-09-21T08:08:41.736Z,444.38
2022-09-21T08:09:41.045Z,455.62
2022-09-21T08:10:41.723Z,500.62
2022-09-21T08:11:41.701Z,450.00
2022-09-21T08:12:41.018Z,489.38
2022-09-21T08:13:41.053Z,556.88
2022-09-21T08:14:41.957Z,635.62
2022-09-21T08:15:50.199Z,849.38
2022-09-21T08:16:42.030Z,956.25
2022-09-21T08:17:41.638Z,1147.50
2022-09-21T08:18:40.940Z,798.75
2022-09-21T08:19:40.947Z,900.00
2022-09-21T08:20:40.949Z,551.25
2022-09-21T08:21:40.979Z,697.50
2022-09-21T08:22:40.903Z,652.50
2022-09-21T08:23:42.922Z,838.12
2022-09-21T08:24:40.879Z,1237.50
2022-09-21T08:25:40.922Z,1220.62
2022-09-21T08:26:40.978Z,1383.75
2022-09-21T08:27:41.534Z,1170.00
2022-09-21T08:28:41.803Z,1411.88
2022-09-21T08:29:41.741Z,1378.12
2022-09-21T08:30:41.499Z,1524.38
2022-09-21T08:31:41.518Z,1850.62
2022-09-21T08:32:51.181Z,1985.62
2022-09-21T08:33:42.463Z,1890.00
2022-09-21T08:34:41.623Z,1845.00
2022-09-21T08:35:40.813Z,1777.50
2022-09-21T08:36:41.648Z,1726.88
2022-09-21T08:37:41.432Z,1833.75
2022-09-21T08:38:41.413Z,1760.62
2022-09-21T08:39:41.741Z,1788.75
2022-09-21T08:40:41.647Z,1957.50
2022-09-21T08:41:42.123Z,2193.75
2022-09-21T08:42:41.365Z,2317.50
2022-09-21T08:43:41.391Z,2221.88
2022-09-21T08:44:41.351Z,2126.25
2022-09-21T08:45:42.623Z,2013.75
2022-09-21T08:46:40.720Z,2137.50
2022-09-21T08:47:41.340Z,2210.62
2022-09-21T08:48:41.314Z,2210.62
2022-09-21T08:49:41.107Z,2199.38
2022-09-21T08:50:41.545Z,2266.88
2022-09-21T08:51:41.266Z,2199.38
2022-09-21T08:52:42.713Z,2182.50
2022-09-21T08:53:40.589Z,2266.88
2022-09-21T08:54:41.411Z,2272.50
2022-09-21T08:55:41.434Z,2171.25
2022-09-21T08:57:03.533Z,2081.25
2022-09-21T08:57:41.536Z,2053.12
2022-09-21T08:58:40.544Z,2115.00
2022-09-21T08:59:40.601Z,2334.38
2022-09-21T09:00:40.525Z,2441.25
2022-09-21T09:01:41.510Z,2278.12
2022-09-21T09:02:41.440Z,2019.38
2022-09-21T09:03:41.737Z,1428.75
2022-09-21T09:04:40.485Z,849.38
2022-09-21T09:05:40.456Z,675.00
2022-09-21T09:06:41.872Z,596.25
2022-09-21T09:07:40.470Z,540.00
2022-09-21T09:08:41.350Z,495.00
2022-09-21T09:09:41.102Z,461.25
2022-09-21T09:10:41.214Z,438.75
2022-09-21T09:11:41.168Z,416.25
2022-09-21T09:12:41.052Z,405.00
2022-09-21T09:13:41.052Z,393.75
2022-09-21T09:14:41.021Z,382.50
2022-09-21T09:15:41.400Z,371.25
2022-09-21T09:16:41.004Z,365.62
2022-09-21T09:17:42.234Z,354.38
2022-09-21T09:18:43.597Z,348.75
2022-09-21T09:19:42.012Z,337.50
2022-09-21T09:20:40.274Z,337.50
2022-09-21T09:21:40.945Z,331.88
2022-09-21T09:22:40.334Z,326.25
2022-09-21T09:23:40.929Z,320.62
2022-09-21T09:24:41.071Z,320.62
2022-09-21T09:25:40.890Z,309.38
2022-09-21T09:26:41.148Z,303.75
2022-09-21T09:27:41.046Z,303.75
2022-09-21T09:28:40.244Z,298.12
2022-09-21T09:29:40.208Z,292.50
2022-09-21T09:30:41.001Z,292.50
2022-09-21T09:31:40.906Z,286.88
2022-09-21T09:32:40.180Z,286.88
2022-09-21T09:33:40.129Z,286.88
2022-09-21T09:34:40.814Z,281.25
2022-09-21T09:35:40.807Z,281.25
2022-09-21T09:36:57.977Z,281.25
2022-09-21T09:37:42.551Z,281.25
2022-09-21T09:38:40.783Z,275.62
2022-09-21T09:39:40.070Z,275.62
2022-09-21T09:40:40.118Z,275.62
2022-09-21T09:41:40.731Z,275.62
2022-09-21T09:42:40.731Z,275.62
2022-09-21T09:43:40.699Z,275.62
2022-09-21T09:44:40.924Z,275.62
2022-09-21T09:45:40.947Z,275.62
2022-09-21T09:46:41.997Z,270.00
2022-09-21T09:47:40.664Z,270.00
2022-09-21T09:48:40.663Z,270.00
2022-09-21T09:49:42.004Z,270.00
2022-09-21T09:50:39.955Z,270.00
2022-09-21T09:51:40.625Z,270.00
2022-09-21T09:52:40.616Z,270.00
2022-09-21T09:53:40.889Z,270.00
2022-09-21T09:54:40.605Z,270.00
2022-09-21T09:55:41.956Z,275.62
2022-09-21T09:56:40.570Z,275.62
2022-09-21T09:57:40.562Z,275.62
2022-09-21T09:58:40.550Z,275.62
2022-09-21T09:59:40.528Z,275.62
2022-09-21T10:00:39.869Z,275.62
2022-09-21T10:01:40.681Z,275.62
2022-09-21T10:02:40.511Z,281.25
2022-09-21T10:03:40.494Z,270.00
2022-09-21T10:04:39.834Z,270.00
2022-09-21T10:05:40.712Z,270.00
2022-09-21T10:06:45.805Z,275.62
2022-09-21T10:07:40.790Z,286.88
2022-09-21T10:08:40.449Z,292.50
2022-09-21T10:09:39.751Z,281.25
2022-09-21T10:10:41.188Z,275.62
2022-09-21T10:11:40.401Z,270.00
2022-09-21T10:12:39.784Z,258.75
2022-09-21T10:13:40.455Z,258.75
2022-09-21T10:14:39.693Z,264.38
2022-09-21T10:15:39.754Z,264.38
2022-09-21T10:16:40.363Z,270.00
2022-09-21T10:17:40.343Z,253.12
2022-09-21T10:18:40.324Z,258.75
2022-09-21T10:19:40.314Z,270.00
2022-09-21T10:20:39.634Z,253.12
2022-09-21T10:21:40.293Z,241.88
2022-09-21T10:22:40.295Z,230.62
2022-09-21T10:23:39.596Z,236.25
2022-09-21T10:24:40.267Z,241.88
2022-09-21T10:25:40.270Z,241.88
2022-09-21T10:26:41.516Z,236.25
2022-09-21T10:27:40.456Z,225.00
2022-09-21T10:28:40.227Z,225.00
2022-09-21T10:29:39.548Z,219.38
2022-09-21T10:30:39.547Z,213.75
2022-09-21T10:31:40.229Z,219.38
2022-09-21T10:32:40.177Z,219.38
2022-09-21T10:33:40.417Z,230.62
2022-09-21T10:34:40.175Z,230.62
2022-09-21T10:35:40.146Z,236.25
2022-09-21T10:36:40.140Z,236.25
2022-09-21T10:37:40.135Z,241.88
2022-09-21T10:38:39.431Z,241.88
2022-09-21T10:39:40.840Z,241.88
2022-09-21T10:40:40.241Z,241.88
2022-09-21T10:41:40.350Z,241.88
2022-09-21T10:42:39.398Z,236.25
2022-09-21T10:43:43.507Z,230.62
2022-09-21T10:44:40.281Z,236.25
2022-09-21T10:45:40.034Z,241.88
2022-09-21T10:46:40.165Z,236.25
2022-09-21T10:47:39.374Z,236.25
2022-09-21T10:48:40.265Z,241.88
2022-09-21T10:49:39.994Z,253.12
2022-09-21T10:50:39.993Z,253.12
2022-09-21T10:51:39.972Z,253.12
2022-09-21T10:52:39.282Z,236.25
2022-09-21T10:53:39.957Z,219.38
2022-09-21T10:54:40.694Z,225.00
2022-09-21T10:55:44.007Z,213.75
2022-09-21T10:56:40.236Z,213.75
2022-09-21T10:57:39.236Z,219.38
2022-09-21T10:58:39.214Z,225.00
2022-09-21T10:59:39.215Z,208.12
2022-09-21T11:00:39.886Z,225.00
2022-09-21T11:01:39.905Z,230.62
2022-09-21T11:02:39.272Z,219.38
2022-09-21T11:03:39.166Z,208.12
2022-09-21T11:04:39.837Z,219.38
2022-09-21T11:05:39.822Z,219.38
2022-09-21T11:06:41.068Z,213.75
2022-09-21T11:07:39.164Z,213.75
2022-09-21T11:08:39.788Z,191.25
2022-09-21T11:09:39.090Z,180.00
2022-09-21T11:10:39.088Z,174.38
2022-09-21T11:11:39.760Z,180.00
2022-09-21T11:12:39.749Z,185.62
2022-09-21T11:13:39.800Z,180.00
2022-09-21T11:14:40.491Z,180.00
2022-09-21T11:15:39.078Z,185.62
2022-09-21T11:16:39.701Z,191.25
2022-09-21T11:17:39.011Z,196.88
2022-09-21T11:18:39.685Z,202.50
2022-09-21T11:19:39.743Z,230.62
2022-09-21T11:20:38.995Z,219.38
2022-09-21T11:21:39.913Z,225.00
2022-09-21T11:22:39.646Z,219.38
2022-09-21T11:23:38.945Z,219.38
2022-09-21T11:24:39.647Z,213.75
2022-09-21T11:25:39.003Z,219.38
2022-09-21T11:26:38.918Z,219.38
2022-09-21T11:27:38.905Z,213.75
2022-09-21T11:28:40.326Z,213.75
2022-09-21T11:29:39.555Z,213.75
2022-09-21T11:30:38.925Z,219.38
2022-09-21T11:31:39.531Z,219.38
2022-09-21T11:32:38.846Z,219.38
2022-09-21T11:33:38.846Z,213.75
2022-09-21T11:34:39.496Z,208.12
2022-09-21T11:35:40.322Z,208.12
2022-09-21T11:36:39.487Z,208.12
2022-09-21T11:37:39.485Z,208.12
2022-09-21T11:38:43.156Z,208.12
2022-09-21T11:39:38.766Z,208.12
2022-09-21T11:40:39.480Z,208.12
2022-09-21T11:41:38.825Z,208.12
2022-09-21T11:42:39.789Z,202.50
2022-09-21T11:43:39.411Z,202.50
2022-09-21T11:44:38.709Z,208.12
2022-09-21T11:45:40.202Z,208.12
2022-09-21T11:46:38.698Z,202.50
2022-09-21T11:47:39.372Z,213.75
2022-09-21T11:48:39.640Z,230.62
2022-09-21T11:49:39.622Z,236.25
2022-09-21T11:50:39.368Z,230.62
2022-09-21T11:51:39.321Z,241.88
2022-09-21T11:52:39.312Z,247.50
2022-09-21T11:53:39.303Z,247.50
2022-09-21T11:54:38.602Z,247.50
2022-09-21T11:55:39.276Z,247.50
2022-09-21T11:56:39.273Z,241.88
2022-09-21T11:57:39.261Z,241.88
2022-09-21T11:58:39.242Z,241.88
2022-09-21T11:59:39.244Z,253.12
2022-09-21T12:00:38.658Z,275.62
2022-09-21T12:01:38.600Z,270.00
2022-09-21T12:02:38.770Z,258.75
2022-09-21T12:03:38.507Z,270.00
2022-09-21T12:04:38.518Z,270.00
2022-09-21T12:05:38.504Z,281.25
2022-09-21T12:06:38.467Z,292.50
2022-09-21T12:07:39.147Z,292.50
2022-09-21T12:08:38.457Z,298.12
2022-09-21T12:09:39.139Z,298.12
2022-09-21T12:10:39.124Z,281.25
2022-09-21T12:11:38.439Z,258.75
2022-09-21T12:12:40.337Z,258.75
2022-09-21T12:13:39.092Z,258.75
2022-09-21T12:14:39.132Z,253.12
2022-09-21T12:15:38.402Z,230.62
2022-09-21T12:16:39.112Z,247.50
2022-09-21T12:17:39.309Z,241.88
2022-09-21T12:18:40.382Z,230.62
2022-09-21T12:19:38.458Z,225.00
2022-09-21T12:20:39.029Z,230.62
2022-09-21T12:21:38.322Z,230.62
2022-09-21T12:22:38.300Z,247.50
2022-09-21T12:23:38.291Z,270.00
2022-09-21T12:24:38.282Z,264.38
2022-09-21T12:25:39.292Z,241.88
2022-09-21T12:26:39.702Z,230.62
2022-09-21T12:27:38.942Z,225.00
2022-09-21T12:28:38.241Z,219.38
2022-09-21T12:29:38.944Z,213.75
2022-09-21T12:30:38.919Z,208.12
2022-09-21T12:31:38.987Z,196.88
2022-09-21T12:32:38.882Z,196.88
2022-09-21T12:33:38.876Z,196.88
2022-09-21T12:34:38.163Z,196.88
2022-09-21T12:35:38.166Z,202.50
2022-09-21T12:36:41.010Z,213.75
2022-09-21T12:37:38.297Z,241.88
2022-09-21T12:38:38.146Z,258.75
2022-09-21T12:39:39.568Z,264.38
2022-09-21T12:40:38.945Z,258.75
2022-09-21T12:41:38.107Z,258.75
2022-09-21T12:42:38.217Z,253.12
2022-09-21T12:43:38.133Z,258.75
2022-09-21T12:44:42.677Z,258.75
2022-09-21T12:45:39.791Z,241.88
2022-09-21T12:46:38.107Z,258.75
2022-09-21T12:47:38.088Z,230.62
2022-09-21T12:48:39.448Z,208.12
2022-09-21T12:49:38.199Z,202.50
2022-09-21T12:50:37.999Z,196.88